| time (UTC) | temp F | wind direction | speed MPH | gust MPH | rain 1hr in | rain 24hr in | rain mn in | humidity % | barometer mb |
| 20260904073044 | 67 | 227 | 0.0 | 1.0 | 0.00 | 0.00 | 0.00 | 40 | 1006.0 |
| 20260904071539 | 67 | 222 | 0.0 | 2.0 | 0.00 | 0.00 | 0.00 | 41 | 1005.8 |
| 20260904070137 | 68 | 224 | 0.0 | 4.0 | 0.00 | 0.00 | 0.00 | 42 | 1005.8 |
| 20260904064534 | 68 | 243 | 2.0 | 5.0 | 0.00 | 0.00 | 0.00 | 43 | 1005.8 |
| 20260904063046 | 68 | 236 | 1.0 | 3.0 | 0.00 | 0.00 | 0.00 | 43 | 1005.7 |
| 20260904061532 | 69 | 223 | 0.0 | 4.0 | 0.00 | 0.00 | 0.00 | 43 | 1005.8 |
| 20260904060039 | 69 | 238 | 0.0 | 1.0 | 0.00 | 0.00 | 0.00 | 43 | 1005.6 |
| 20260904054527 | 71 | 236 | 1.0 | 4.0 | 0.00 | 0.00 | 0.00 | 42 | 1005.6 |
| 20260904053031 | 72 | 239 | 1.0 | 6.0 | 0.00 | 0.00 | 0.00 | 42 | 1005.6 |
| 20260904051524 | 73 | 222 | 0.0 | 7.0 | 0.00 | 0.00 | 0.00 | 42 | 1005.7 |
| 20260904050021 | 73 | 242 | 4.0 | 10.0 | 0.00 | 0.00 | 0.00 | 42 | 1005.7 |
| 20260904044530 | 73 | 226 | 3.0 | 10.0 | 0.00 | 0.00 | 0.00 | 41 | 1005.7 |
| 20260904043015 | 73 | 233 | 3.0 | 8.0 | 0.00 | 0.00 | 0.00 | 40 | 1005.6 |
| 20260904041513 | 73 | 200 | 3.0 | 9.0 | 0.00 | 0.00 | 0.00 | 40 | 1005.6 |
| 20260904040011 | 73 | 201 | 2.0 | 12.0 | 0.00 | 0.00 | 0.00 | 40 | 1005.4 |
| 20260904034508 | 73 | 232 | 4.0 | 11.0 | 0.00 | 0.00 | 0.00 | 39 | 1005.3 |
| 20260904033006 | 72 | 205 | 3.0 | 8.0 | 0.00 | 0.00 | 0.00 | 39 | 1005.2 |
| 20260904031504 | 72 | 231 | 2.0 | 6.0 | 0.00 | 0.00 | 0.00 | 38 | 1005.1 |
| 20260904030003 | 72 | 212 | 0.0 | 1.0 | 0.00 | 0.00 | 0.00 | 36 | 1004.9 |
| 20260904024501 | 73 | 242 | 0.0 | 3.0 | 0.00 | 0.00 | 0.00 | 36 | 1004.7 |
| 20260904023159 | 74 | 223 | 2.0 | 8.0 | 0.00 | 0.00 | 0.00 | 35 | 1004.6 |
| 20260904021557 | 75 | 197 | 3.0 | 9.0 | 0.00 | 0.00 | 0.00 | 34 | 1004.3 |
| 20260904020056 | 75 | 185 | 4.0 | 12.0 | 0.00 | 0.00 | 0.00 | 34 | 1004.3 |
| 20260904014553 | 76 | 186 | 5.0 | 11.0 | 0.00 | 0.00 | 0.00 | 33 | 1004.4 |
| 20260904013051 | 78 | 182 | 3.0 | 13.0 | 0.00 | 0.00 | 0.00 | 33 | 1004.1 |
| 20260904011550 | 79 | 191 | 6.0 | 12.0 | 0.00 | 0.00 | 0.00 | 34 | 1004.1 |
| 20260904010053 | 79 | 214 | 8.0 | 13.0 | 0.00 | 0.00 | 0.00 | 34 | 1004.2 |
| 20260904004557 | 80 | 225 | 6.0 | 13.0 | 0.00 | 0.00 | 0.00 | 35 | 1004.4 |
| 20260904003042 | 79 | 246 | 5.0 | 15.0 | 0.00 | 0.00 | 0.00 | 34 | 1004.5 |
| 20260904001540 | 79 | 224 | 8.0 | 17.0 | 0.00 | 0.00 | 0.00 | 34 | 1004.6 |
| 20260904000051 | 79 | 191 | 8.0 | 15.0 | 0.00 | 0.00 | 0.00 | 34 | 1004.5 |
| 20260903234542 | 81 | 229 | 8.0 | 17.0 | 0.00 | 0.00 | 0.00 | 33 | 1004.5 |
| 20260903233034 | 81 | 268 | 6.0 | 15.0 | 0.00 | 0.00 | 0.00 | 33 | 1004.4 |
| 20260903231533 | 82 | 173 | 6.0 | 17.0 | 0.00 | 0.00 | 0.00 | 33 | 1004.5 |
| 20260903230032 | 81 | 200 | 7.0 | 16.0 | 0.00 | 0.00 | 0.00 | 33 | 1004.6 |
| 20260903224528 | 82 | 239 | 9.0 | 18.0 | 0.00 | 0.00 | 0.00 | 33 | 1004.9 |
| 20260903223034 | 82 | 200 | 4.0 | 13.0 | 0.00 | 0.00 | 0.00 | 32 | 1004.9 |
| 20260903221520 | 82 | 207 | 8.0 | 22.0 | 0.00 | 0.00 | 0.00 | 32 | 1005.2 |
| 20260903220021 | 81 | 240 | 7.0 | 16.0 | 0.00 | 0.00 | 0.00 | 32 | 1005.4 |
| 20260903214515 | 81 | 236 | 5.0 | 16.0 | 0.00 | 0.00 | 0.00 | 32 | 1005.6 |
| 20260903213014 | 81 | 229 | 9.0 | 19.0 | 0.00 | 0.00 | 0.00 | 32 | 1005.7 |
| 20260903211526 | 81 | 215 | 9.0 | 17.0 | 0.00 | 0.00 | 0.00 | 32 | 1005.8 |
| 20260903210008 | 81 | 212 | 10.0 | 22.0 | 0.00 | 0.00 | 0.00 | 32 | 1005.8 |
| 20260903204507 | 82 | 254 | 8.0 | 19.0 | 0.00 | 0.00 | 0.00 | 32 | 1005.9 |
| 20260903203001 | 81 | 221 | 7.0 | 17.0 | 0.00 | 0.00 | 0.00 | 32 | 1006.1 |
| 20260903201559 | 80 | 213 | 11.0 | 22.0 | 0.00 | 0.00 | 0.00 | 32 | 1006.1 |
| 20260903200057 | 79 | 250 | 10.0 | 21.0 | 0.00 | 0.00 | 0.00 | 32 | 1006.2 |
| 20260903194553 | 81 | 218 | 7.0 | 21.0 | 0.00 | 0.00 | 0.00 | 32 | 1006.3 |
| 20260903193050 | 81 | 230 | 8.0 | 17.0 | 0.00 | 0.00 | 0.00 | 33 | 1006.4 |
| 20260903191547 | 80 | 217 | 7.0 | 19.0 | 0.00 | 0.00 | 0.00 | 33 | 1006.5 |
| 20260903190044 | 79 | 207 | 7.0 | 23.0 | 0.00 | 0.00 | 0.00 | 33 | 1006.9 |
| 20260903184541 | 80 | 243 | 8.0 | 17.0 | 0.00 | 0.00 | 0.00 | 33 | 1007.0 |
| 20260903183038 | 79 | 216 | 11.0 | 19.0 | 0.00 | 0.00 | 0.00 | 33 | 1007.2 |
| 20260903181535 | 79 | 156 | 11.0 | 21.0 | 0.00 | 0.00 | 0.00 | 34 | 1007.3 |
| 20260903180033 | 79 | 211 | 8.0 | 17.0 | 0.00 | 0.00 | 0.00 | 34 | 1007.3 |
| 20260903174549 | 79 | 271 | 7.0 | 14.0 | 0.00 | 0.00 | 0.00 | 34 | 1007.5 |
| 20260903173027 | 79 | 242 | 6.0 | 12.0 | 0.00 | 0.00 | 0.00 | 35 | 1007.5 |
| 20260903171523 | 78 | 227 | 6.0 | 12.0 | 0.00 | 0.00 | 0.00 | 35 | 1007.5 |
| 20260903170020 | 77 | 278 | 7.0 | 14.0 | 0.00 | 0.00 | 0.00 | 35 | 1007.6 |
| 20260903164514 | 77 | 169 | 7.0 | 16.0 | 0.00 | 0.00 | 0.00 | 36 | 1007.5 |
| 20260903163012 | 76 | 202 | 4.0 | 17.0 | 0.00 | 0.00 | 0.00 | 36 | 1007.5 |
| 20260903161520 | 76 | 213 | 7.0 | 16.0 | 0.00 | 0.00 | 0.00 | 37 | 1007.5 |
| 20260903160009 | 75 | 210 | 4.0 | 13.0 | 0.00 | 0.00 | 0.00 | 37 | 1007.6 |
| 20260903154503 | 75 | 214 | 4.0 | 11.0 | 0.00 | 0.00 | 0.00 | 37 | 1007.6 |
| 20260903153102 | 74 | 214 | 7.0 | 15.0 | 0.00 | 0.00 | 0.00 | 38 | 1007.8 |
| 20260903151558 | 74 | 219 | 5.0 | 12.0 | 0.00 | 0.00 | 0.00 | 38 | 1007.9 |
| 20260903150112 | 74 | 229 | 3.0 | 8.0 | 0.00 | 0.00 | 0.00 | 39 | 1007.9 |
| 20260903144651 | 73 | 149 | 3.0 | 7.0 | 0.00 | 0.00 | 0.00 | 40 | 1007.9 |
| 20260903143044 | 71 | 231 | 2.0 | 8.0 | 0.00 | 0.00 | 0.00 | 40 | 1008.0 |
| 20260903141541 | 70 | 208 | 2.0 | 9.0 | 0.00 | 0.00 | 0.00 | 40 | 1008.0 |
| 20260903140034 | 69 | 220 | 3.0 | 8.0 | 0.00 | 0.00 | 0.00 | 40 | 1007.9 |
| 20260903134530 | 67 | 225 | 3.0 | 8.0 | 0.00 | 0.00 | 0.00 | 39 | 1007.8 |
| 20260903133026 | 64 | 204 | 0.0 | 2.0 | 0.00 | 0.00 | 0.00 | 38 | 1007.5 |
| 20260903131523 | 63 | 236 | 0.0 | 0.0 | 0.00 | 0.00 | 0.00 | 36 | 1007.4 |
| 20260903130020 | 65 | 231 | 0.0 | 1.0 | 0.00 | 0.00 | 0.00 | 36 | 1007.3 |
| 20260903124517 | 66 | 200 | 1.0 | 7.0 | 0.00 | 0.00 | 0.00 | 36 | 1007.2 |
| 20260903123014 | 66 | 223 | 1.0 | 7.0 | 0.00 | 0.00 | 0.00 | 35 | 1007.2 |
| 20260903121513 | 66 | 223 | 1.0 | 8.0 | 0.00 | 0.00 | 0.00 | 35 | 1007.3 |
| 20260903120111 | 66 | 222 | 0.0 | 4.0 | 0.00 | 0.00 | 0.00 | 35 | 1007.3 |
| 20260903114609 | 67 | 245 | 1.0 | 5.0 | 0.00 | 0.01 | 0.00 | 34 | 1007.2 |
| 20260903113005 | 67 | 222 | 3.0 | 8.0 | 0.00 | 0.01 | 0.00 | 34 | 1007.3 |
| 20260903111502 | 67 | 210 | 1.0 | 9.0 | 0.00 | 0.01 | 0.00 | 34 | 1007.2 |
| 20260903110111 | 67 | 223 | 1.0 | 5.0 | 0.00 | 0.01 | 0.00 | 33 | 1007.2 |
| 20260903104630 | 68 | 224 | 1.0 | 6.0 | 0.00 | 0.01 | 0.00 | 32 | 1007.3 |
| 20260903103055 | 68 | 196 | 1.0 | 4.0 | 0.00 | 0.01 | 0.00 | 32 | 1007.4 |
| 20260903101549 | 68 | 129 | 2.0 | 5.0 | 0.00 | 0.01 | 0.00 | 31 | 1007.4 |
| 20260903100045 | 67 | 197 | 0.0 | 4.0 | 0.00 | 0.01 | 0.00 | 31 | 1007.7 |
| 20260903094541 | 67 | 209 | 0.0 | 5.0 | 0.00 | 0.01 | 0.00 | 30 | 1007.8 |
| 20260903093043 | 67 | 136 | 0.0 | 2.0 | 0.00 | 0.01 | 0.00 | 29 | 1007.8 |
| 20260903091535 | 67 | 229 | 2.0 | 6.0 | 0.00 | 0.01 | 0.00 | 29 | 1007.8 |
| 20260903090033 | 67 | 233 | 0.0 | 6.0 | 0.00 | 0.01 | 0.00 | 28 | 1007.8 |
| 20260903084533 | 67 | 220 | 0.0 | 1.0 | 0.00 | 0.06 | 0.00 | 28 | 1007.8 |
| 20260903083024 | 67 | 230 | 0.0 | 1.0 | 0.00 | 0.06 | 0.00 | 27 | 1008.0 |
| 20260903081520 | 67 | 220 | 1.0 | 4.0 | 0.00 | 0.06 | 0.00 | 27 | 1008.1 |
| 20260903080017 | 66 | 232 | 0.0 | 1.0 | 0.00 | 0.06 | 0.00 | 27 | 1008.1 |
| 20260903074512 | 66 | 233 | 0.0 | 1.0 | 0.00 | 0.07 | 0.00 | 27 | 1008.3 |